Time;durP1;ratioP1;P1;durP2;ratioP2;P2;SDS_P1;SDS_P2;PMS_P1;PMS_P2;Temp;Humidity;BMP_temperature;BMP_pressure;BME280_temperature;BME280_humidity;BME280_pressure;Samples;Min_cycle;Max_cycle;Signal;HPM_P1;HPM_P2
2024/01/02 00:01:36;;;;;;;19.42;4.20;;;6.00;99.90;;;;;;4908414;29;20048;-85
2024/01/02 00:04:02;;;;;;;13.75;3.22;;;6.20;99.90;;;;;;4908961;29;20043;-86
2024/01/02 00:06:28;;;;;;;15.30;3.20;;;5.30;99.90;;;;;;4911814;29;20059;-86
2024/01/02 00:08:54;;;;;;;15.10;3.85;;;6.50;99.90;;;;;;4907932;29;20151;-84
2024/01/02 00:11:20;;;;;;;22.85;3.50;;;5.90;99.90;;;;;;4909870;29;20052;-88
2024/01/02 00:13:46;;;;;;;17.42;4.03;;;6.20;99.90;;;;;;4912494;29;20127;-86
2024/01/02 00:16:11;;;;;;;15.38;3.42;;;6.00;99.90;;;;;;4906965;29;20040;-86
2024/01/02 00:18:37;;;;;;;14.20;3.47;;;6.00;99.90;;;;;;4906661;29;20071;-86
2024/01/02 00:21:03;;;;;;;17.17;3.40;;;6.10;99.90;;;;;;4913351;29;20119;-86
2024/01/02 00:23:29;;;;;;;13.00;3.10;;;5.00;99.90;;;;;;4903556;29;20056;-85
2024/01/02 00:25:56;;;;;;;19.58;3.28;;;6.20;99.90;;;;;;4886205;29;20508;-87
2024/01/02 00:28:21;;;;;;;17.17;3.75;;;6.30;99.90;;;;;;4906951;29;20052;-86
2024/01/02 00:30:47;;;;;;;16.23;3.53;;;6.00;99.90;;;;;;4903236;29;20377;-86
2024/01/02 00:33:12;;;;;;;15.23;3.47;;;6.40;99.90;;;;;;4913189;29;20055;-86
2024/01/02 00:35:38;;;;;;;13.57;3.08;;;6.40;99.90;;;;;;4911782;29;20066;-86
2024/01/02 00:38:04;;;;;;;16.75;3.10;;;6.50;99.90;;;;;;4902103;29;20814;-87
2024/01/02 00:40:30;;;;;;;9.32;2.45;;;5.40;99.90;;;;;;4906856;29;20059;-87
2024/01/02 00:42:56;;;;;;;13.63;2.80;;;5.90;99.90;;;;;;4904590;29;20043;-84
2024/01/02 00:45:22;;;;;;;15.23;2.78;;;6.60;99.90;;;;;;4904979;29;20040;-85
2024/01/02 00:47:48;;;;;;;10.88;2.38;;;6.50;99.90;;;;;;4902535;29;20050;-85
2024/01/02 00:50:14;;;;;;;13.00;3.08;;;5.50;99.90;;;;;;4912585;29;20044;-86
2024/01/02 00:52:39;;;;;;;9.52;2.35;;;5.40;99.90;;;;;;4906647;29;20055;-86
2024/01/02 00:55:06;;;;;;;12.63;2.63;;;6.10;99.90;;;;;;4910111;29;20056;-86
2024/01/02 00:57:32;;;;;;;12.85;2.45;;;5.50;99.90;;;;;;4912539;29;20488;-86
2024/01/02 01:00:01;;;;;;;13.48;2.72;;;5.60;99.90;;;;;;4904405;29;20131;-85
2024/01/02 01:02:27;;;;;;;14.77;2.72;;;5.60;99.90;;;;;;4903056;29;20127;-85
2024/01/02 01:04:52;;;;;;;17.33;2.88;;;5.60;99.90;;;;;;4910865;29;20126;-85
2024/01/02 01:07:18;;;;;;;11.50;2.70;;;5.60;99.90;;;;;;4909255;29;20055;-85
2024/01/02 01:09:44;;;;;;;15.05;3.08;;;6.70;99.90;;;;;;4905470;29;20048;-85
2024/01/02 01:12:09;;;;;;;14.40;2.60;;;6.60;99.90;;;;;;4913788;29;20044;-84
2024/01/02 01:14:35;;;;;;;19.88;2.97;;;6.40;99.90;;;;;;4913112;29;20052;-84
2024/01/02 01:17:01;;;;;;;13.93;2.88;;;6.40;99.90;;;;;;4889940;29;20046;-85
2024/01/02 01:19:27;;;;;;;18.92;3.58;;;5.80;99.90;;;;;;4912210;29;20127;-85
2024/01/02 01:21:53;;;;;;;15.68;2.70;;;5.70;99.90;;;;;;4905963;29;20489;-84
2024/01/02 01:24:18;;;;;;;14.02;2.88;;;6.50;99.90;;;;;;4910052;29;20174;-85
2024/01/02 01:26:45;;;;;;;16.52;2.50;;;6.20;99.90;;;;;;4911333;29;20052;-84
2024/01/02 01:29:12;;;;;;;17.30;2.70;;;6.90;99.90;;;;;;4911556;29;20059;-84
2024/01/02 01:31:38;;;;;;;12.70;2.45;;;5.80;99.90;;;;;;4910584;29;20500;-84
2024/01/02 01:34:04;;;;;;;15.13;2.88;;;6.40;99.90;;;;;;4913215;29;20048;-84
2024/01/02 01:36:29;;;;;;;11.82;2.45;;;6.60;99.90;;;;;;4913471;29;20055;-83
2024/01/02 01:38:55;;;;;;;17.48;3.03;;;6.50;99.90;;;;;;4910863;29;20492;-83
2024/01/02 01:41:21;;;;;;;17.55;2.40;;;6.60;99.90;;;;;;4912891;29;20040;-84
2024/01/02 01:43:47;;;;;;;9.65;2.58;;;6.90;99.90;;;;;;4910336;29;20087;-85
2024/01/02 01:46:15;;;;;;;20.48;3.03;;;6.70;99.90;;;;;;4910153;29;20056;-85
2024/01/02 01:48:41;;;;;;;16.77;2.60;;;5.80;99.90;;;;;;4910512;29;20036;-84
2024/01/02 01:51:08;;;;;;;12.73;2.50;;;6.50;99.90;;;;;;4910135;29;20176;-84
2024/01/02 01:53:34;;;;;;;12.88;2.38;;;6.60;99.90;;;;;;4907220;29;20567;-85
2024/01/02 01:56:00;;;;;;;16.42;2.95;;;6.50;99.90;;;;;;4907733;29;20641;-84
2024/01/02 01:58:27;;;;;;;11.15;2.60;;;6.70;99.90;;;;;;4914729;29;20105;-86
2024/01/02 02:00:52;;;;;;;16.13;3.00;;;6.80;99.90;;;;;;4928225;29;20055;-83
2024/01/02 02:03:19;;;;;;;7.90;2.03;;;5.80;99.90;;;;;;4907852;29;20051;-84
2024/01/02 02:05:45;;;;;;;11.95;2.45;;;7.00;99.90;;;;;;4927849;29;20057;-85
2024/01/02 02:08:11;;;;;;;8.20;2.25;;;5.90;99.90;;;;;;4924512;29;20167;-86
2024/01/02 02:10:37;;;;;;;12.10;2.30;;;6.80;99.90;;;;;;4926108;29;20146;-85
2024/01/02 02:13:03;;;;;;;14.32;2.70;;;7.00;99.90;;;;;;4925394;29;20079;-85
2024/01/02 02:15:29;;;;;;;9.77;2.67;;;6.00;99.90;;;;;;4925037;29;20530;-83
2024/01/02 02:17:54;;;;;;;8.75;2.10;;;6.80;99.90;;;;;;4927609;29;20442;-84
2024/01/02 02:20:20;;;;;;;11.80;2.30;;;6.90;99.90;;;;;;4919818;29;20502;-84
2024/01/02 02:22:50;;;;;;;12.77;2.70;;;6.40;99.90;;;;;;4907762;29;20484;-84
2024/01/02 02:25:16;;;;;;;17.48;3.15;;;6.90;99.90;;;;;;4924379;29;20059;-84
2024/01/02 02:27:43;;;;;;;10.77;2.83;;;6.10;99.90;;;;;;4906580;29;20044;-84
2024/01/02 02:30:09;;;;;;;11.68;2.78;;;6.10;99.90;;;;;;4906961;29;20087;-83
2024/01/02 02:32:35;;;;;;;10.60;2.97;;;6.10;99.90;;;;;;4922551;29;20100;-86
2024/01/02 02:35:01;;;;;;;9.43;3.13;;;6.60;99.90;;;;;;4923864;29;20471;-83
2024/01/02 02:37:27;;;;;;;13.77;3.35;;;7.00;99.90;;;;;;4922996;29;20404;-84
2024/01/02 02:39:52;;;;;;;11.70;3.17;;;6.90;99.90;;;;;;4922270;29;20040;-84
2024/01/02 02:42:18;;;;;;;9.70;3.35;;;7.10;99.90;;;;;;4921554;29;20049;-84
2024/01/02 02:44:44;;;;;;;11.38;3.80;;;7.10;99.90;;;;;;4903022;29;20052;-84
2024/01/02 02:47:10;;;;;;;17.30;3.65;;;6.20;99.90;;;;;;4921899;29;20052;-83
2024/01/02 02:49:37;;;;;;;12.35;3.60;;;6.20;99.90;;;;;;4906458;29;20062;-83
2024/01/02 02:52:03;;;;;;;9.70;3.38;;;6.20;99.90;;;;;;4917913;29;20048;-83
2024/01/02 02:54:29;;;;;;;9.25;3.90;;;6.20;99.90;;;;;;4909929;29;20062;-84
2024/01/02 02:56:55;;;;;;;12.50;4.15;;;6.20;99.90;;;;;;4921212;29;20044;-84
2024/01/02 02:59:21;;;;;;;11.23;4.45;;;7.20;99.90;;;;;;4928027;29;20052;-83
2024/01/02 03:01:46;;;;;;;12.73;4.10;;;6.70;99.90;;;;;;4929124;29;20040;-83
2024/01/02 03:04:12;;;;;;;17.25;4.43;;;6.80;99.90;;;;;;4926309;29;20044;-82
2024/01/02 03:06:38;;;;;;;12.85;4.13;;;6.30;99.90;;;;;;4928109;29;20054;-83
2024/01/02 03:09:03;;;;;;;13.15;4.18;;;6.50;99.90;;;;;;4892537;29;20079;-85
2024/01/02 03:11:29;;;;;;;18.67;4.00;;;7.20;99.90;;;;;;4909896;29;20110;-84
2024/01/02 03:13:55;;;;;;;13.82;4.40;;;7.10;99.90;;;;;;4926789;29;20741;-83
2024/01/02 03:16:23;;;;;;;13.32;4.20;;;6.30;99.90;;;;;;4891070;29;20043;-83
2024/01/02 03:18:48;;;;;;;13.65;4.30;;;6.30;99.90;;;;;;4905139;29;20099;-83
2024/01/02 03:21:14;;;;;;;10.63;4.00;;;6.90;99.90;;;;;;4924746;29;20036;-83
2024/01/02 03:23:40;;;;;;;11.15;3.80;;;7.10;99.90;;;;;;4923317;29;20043;-84
2024/01/02 03:26:06;;;;;;;14.13;3.97;;;6.70;99.90;;;;;;4923297;29;20040;-83
2024/01/02 03:28:31;;;;;;;11.10;3.35;;;6.30;99.90;;;;;;4923956;29;20447;-84
2024/01/02 03:30:57;;;;;;;11.45;3.83;;;6.40;99.90;;;;;;4922859;29;20047;-83
2024/01/02 03:33:23;;;;;;;12.32;3.63;;;7.20;99.90;;;;;;4903601;29;20095;-83
2024/01/02 03:35:49;;;;;;;9.02;3.10;;;7.30;99.90;;;;;;4921263;29;20048;-84
2024/01/02 03:38:15;;;;;;;8.18;3.40;;;7.30;99.90;;;;;;4924662;29;20527;-82
2024/01/02 03:40:41;;;;;;;11.48;3.40;;;7.10;99.90;;;;;;4923713;29;20440;-84
2024/01/02 03:43:06;;;;;;;9.88;3.33;;;6.30;99.90;;;;;;4907538;29;20051;-82
2024/01/02 03:45:32;;;;;;;10.30;2.90;;;6.70;99.90;;;;;;4889666;29;20056;-83
2024/01/02 03:48:00;;;;;;;13.93;4.00;;;7.10;99.90;;;;;;4906727;29;20123;-82
2024/01/02 03:50:25;;;;;;;12.48;3.30;;;6.30;99.90;;;;;;4920921;29;20051;-83
2024/01/02 03:52:51;;;;;;;9.50;3.15;;;6.60;99.90;;;;;;4922530;29;20051;-85
2024/01/02 03:55:17;;;;;;;16.63;3.08;;;6.50;99.90;;;;;;4921134;29;20099;-83
2024/01/02 03:57:43;;;;;;;7.07;3.10;;;7.30;99.90;;;;;;4919462;29;20079;-81
2024/01/02 04:00:09;;;;;;;7.85;2.47;;;6.70;99.90;;;;;;4903988;29;20124;-81
2024/01/02 04:02:35;;;;;;;6.35;2.58;;;6.30;99.90;;;;;;4902885;29;20094;-84
2024/01/02 04:05:03;;;;;;;13.02;3.30;;;7.20;99.90;;;;;;4905222;29;20500;-82
2024/01/02 04:07:28;;;;;;;9.95;3.13;;;6.30;99.90;;;;;;4902749;29;20052;-84
2024/01/02 04:09:54;;;;;;;8.13;3.10;;;7.20;99.90;;;;;;4921902;29;20047;-81
2024/01/02 04:12:20;;;;;;;11.88;3.17;;;6.30;99.90;;;;;;4918316;29;20507;-82
2024/01/02 04:14:46;;;;;;;7.97;3.30;;;6.60;99.90;;;;;;4921731;29;20044;-85
2024/01/02 04:17:11;;;;;;;7.25;2.65;;;6.30;99.90;;;;;;4906266;29;20047;-82
2024/01/02 04:19:37;;;;;;;8.77;3.17;;;7.20;99.90;;;;;;4905525;29;20103;-85
2024/01/02 04:22:04;;;;;;;8.30;3.03;;;7.40;99.90;;;;;;4901925;29;20040;-84
2024/01/02 04:24:30;;;;;;;10.98;3.40;;;6.30;99.90;;;;;;4900842;29;20083;-84
2024/01/02 04:26:56;;;;;;;7.95;3.03;;;7.30;99.90;;;;;;4887528;29;20126;-84
2024/01/02 04:29:21;;;;;;;6.50;2.95;;;7.20;99.90;;;;;;4919019;29;20051;-84
2024/01/02 04:31:47;;;;;;;9.80;3.10;;;7.40;99.90;;;;;;4919718;29;20054;-84
2024/01/02 04:34:12;;;;;;;8.45;3.20;;;7.20;99.90;;;;;;4904408;29;20050;-83
2024/01/02 04:36:41;;;;;;;10.80;2.88;;;7.30;99.90;;;;;;4916929;29;20052;-82
2024/01/02 04:39:07;;;;;;;8.25;2.90;;;6.60;99.90;;;;;;4915808;29;20040;-83
2024/01/02 04:41:33;;;;;;;10.70;3.20;;;6.70;99.90;;;;;;4898308;29;20092;-84
2024/01/02 04:43:58;;;;;;;6.85;2.13;;;7.40;99.90;;;;;;4921280;29;20044;-83
2024/01/02 04:46:27;;;;;;;5.35;2.08;;;7.00;99.90;;;;;;4897341;29;20055;-83
2024/01/02 04:48:52;;;;;;;5.85;2.17;;;7.40;99.90;;;;;;4897423;29;20369;-84
2024/01/02 04:51:18;;;;;;;6.68;2.20;;;6.40;99.90;;;;;;4918679;29;20058;-84
2024/01/02 04:53:44;;;;;;;5.25;2.28;;;6.80;99.90;;;;;;4911638;29;20044;-81
2024/01/02 04:56:09;;;;;;;8.00;2.28;;;6.30;99.90;;;;;;4895848;29;20273;-82
2024/01/02 04:58:35;;;;;;;4.90;2.10;;;7.30;99.90;;;;;;4902964;29;20055;-84
2024/01/02 05:01:00;;;;;;;5.13;2.30;;;6.40;99.90;;;;;;4926489;29;20059;-83
2024/01/02 05:03:26;;;;;;;9.90;2.67;;;7.30;99.90;;;;;;4925033;29;20035;-83
2024/01/02 05:05:52;;;;;;;6.43;1.80;;;6.90;99.90;;;;;;4924903;29;20083;-86
2024/01/02 05:08:19;;;;;;;7.00;2.13;;;7.20;99.90;;;;;;4923827;29;20040;-84
2024/01/02 05:10:44;;;;;;;8.75;1.88;;;7.00;99.90;;;;;;4921162;29;20509;-82
2024/01/02 05:13:10;;;;;;;4.40;1.80;;;7.10;99.90;;;;;;4890614;29;20090;-83
2024/01/02 05:15:36;;;;;;;5.22;1.67;;;7.20;99.90;;;;;;4928512;29;20171;-83
2024/01/02 05:18:01;;;;;;;2.88;1.80;;;6.40;99.90;;;;;;4928348;29;20127;-83
2024/01/02 05:20:27;;;;;;;4.45;1.45;;;6.40;99.90;;;;;;4910582;29;20455;-86
2024/01/02 05:22:53;;;;;;;5.00;1.50;;;7.40;99.90;;;;;;4928239;29;20046;-84
2024/01/02 05:25:18;;;;;;;5.57;1.63;;;7.30;99.90;;;;;;4925915;29;20072;-84
2024/01/02 05:27:44;;;;;;;5.05;1.30;;;6.60;99.90;;;;;;4901970;29;20703;-82
2024/01/02 05:30:10;;;;;;;4.30;1.35;;;7.50;99.90;;;;;;4891959;29;20503;-85
2024/01/02 05:32:35;;;;;;;3.90;1.30;;;6.40;99.90;;;;;;4924204;29;20040;-86
2024/01/02 05:35:01;;;;;;;8.32;1.40;;;6.40;99.90;;;;;;4908203;29;20062;-83
2024/01/02 05:37:27;;;;;;;4.43;1.30;;;6.50;99.90;;;;;;4905899;29;20054;-82
2024/01/02 05:39:55;;;;;;;4.97;1.20;;;6.80;99.90;;;;;;4907345;29;20134;-84
2024/01/02 05:42:21;;;;;;;5.55;1.50;;;6.50;99.90;;;;;;4904089;29;20178;-84
2024/01/02 05:44:47;;;;;;;5.50;1.08;;;7.20;99.90;;;;;;4923018;29;20782;-83
2024/01/02 05:47:13;;;;;;;4.63;1.30;;;6.40;99.90;;;;;;4920923;29;20048;-83
2024/01/02 05:49:38;;;;;;;6.35;1.50;;;6.40;99.90;;;;;;4917919;29;20052;-84
2024/01/02 05:52:04;;;;;;;2.92;1.27;;;6.40;99.90;;;;;;4924324;29;20099;-83
2024/01/02 05:54:30;;;;;;;4.03;1.27;;;6.30;99.90;;;;;;4904089;29;20055;-83
2024/01/02 05:56:56;;;;;;;4.95;1.42;;;7.10;99.90;;;;;;4920554;29;20408;-84
2024/01/02 05:59:22;;;;;;;5.20;1.30;;;6.40;99.90;;;;;;4907084;29;20137;-85
2024/01/02 06:01:47;;;;;;;4.32;1.27;;;6.80;99.90;;;;;;4927932;29;20040;-83
2024/01/02 06:04:13;;;;;;;3.47;0.90;;;7.30;99.90;;;;;;4906673;29;20103;-82
2024/01/02 06:06:38;;;;;;;2.63;1.05;;;7.30;99.90;;;;;;4906964;29;20044;-84
2024/01/02 06:09:05;;;;;;;4.18;0.90;;;7.20;99.90;;;;;;4921628;29;20522;-83
2024/01/02 06:11:31;;;;;;;1.95;0.77;;;7.10;99.90;;;;;;4903739;29;20096;-84
2024/01/02 06:13:56;;;;;;;1.40;0.70;;;7.30;99.90;;;;;;4903587;29;20098;-83
2024/01/02 06:16:22;;;;;;;1.63;0.60;;;6.40;99.90;;;;;;4921759;29;20609;-82
2024/01/02 06:18:47;;;;;;;1.88;0.70;;;6.40;99.90;;;;;;4920360;29;20071;-85
2024/01/02 06:21:13;;;;;;;2.08;0.93;;;7.30;99.90;;;;;;4919411;29;20048;-83
2024/01/02 06:23:39;;;;;;;2.65;0.85;;;7.30;99.90;;;;;;4928408;29;20094;-84
2024/01/02 06:26:04;;;;;;;2.88;0.80;;;6.40;99.90;;;;;;4904912;29;20080;-83
2024/01/02 06:28:30;;;;;;;2.55;0.82;;;7.30;99.90;;;;;;4918188;29;20136;-84
2024/01/02 06:30:56;;;;;;;1.98;0.68;;;7.40;99.90;;;;;;4917301;29;20044;-85
2024/01/02 06:33:22;;;;;;;1.52;0.85;;;6.50;99.90;;;;;;4900407;29;20056;-84
2024/01/02 06:35:48;;;;;;;2.22;0.80;;;7.50;99.90;;;;;;4916405;29;20393;-84
2024/01/02 06:38:13;;;;;;;1.10;0.60;;;6.40;99.90;;;;;;4883558;29;20084;-84
2024/01/02 06:40:39;;;;;;;2.00;0.90;;;7.20;99.90;;;;;;4907770;29;20059;-83
2024/01/02 06:43:05;;;;;;;1.75;0.80;;;6.40;99.90;;;;;;4930422;29;20479;-82
2024/01/02 06:45:31;;;;;;;1.17;0.63;;;7.50;99.90;;;;;;4932005;29;20051;-83
2024/01/02 06:47:57;;;;;;;1.63;0.77;;;7.30;99.90;;;;;;4926280;29;20071;-85
2024/01/02 06:50:23;;;;;;;2.67;0.77;;;7.40;99.90;;;;;;4933138;29;20086;-83
2024/01/02 06:52:49;;;;;;;2.88;1.00;;;7.30;99.90;;;;;;4931373;29;20095;-85
2024/01/02 06:55:14;;;;;;;2.78;1.05;;;6.50;99.90;;;;;;4896805;29;20074;-83
2024/01/02 06:57:40;;;;;;;3.42;1.08;;;7.40;99.90;;;;;;4923008;29;20048;-85
2024/01/02 07:00:07;;;;;;;5.82;1.05;;;6.80;99.90;;;;;;4931173;29;20047;-83
2024/01/02 07:02:33;;;;;;;2.47;0.90;;;6.40;99.90;;;;;;4928119;29;20107;-84
2024/01/02 07:04:59;;;;;;;2.25;0.80;;;7.50;99.90;;;;;;4928211;29;20043;-83
2024/01/02 07:07:25;;;;;;;2.05;0.80;;;6.80;99.90;;;;;;4912098;29;20058;-84
2024/01/02 07:09:51;;;;;;;1.27;0.65;;;7.40;99.90;;;;;;4912348;29;20047;-84
2024/01/02 07:12:17;;;;;;;1.52;0.70;;;6.50;99.90;;;;;;4910640;29;20052;-83
2024/01/02 07:14:43;;;;;;;1.17;0.75;;;6.50;99.90;;;;;;4923630;29;20048;-82
2024/01/02 07:17:09;;;;;;;1.20;0.60;;;6.50;99.90;;;;;;4924913;29;20075;-82
2024/01/02 07:19:35;;;;;;;3.30;1.00;;;7.40;99.90;;;;;;4910550;29;20086;-83
2024/01/02 07:22:01;;;;;;;2.20;0.90;;;7.20;99.90;;;;;;4908636;29;20048;-83
2024/01/02 07:24:26;;;;;;;2.08;1.00;;;7.50;99.90;;;;;;4924801;29;20401;-83
2024/01/02 07:26:52;;;;;;;2.85;0.98;;;6.60;99.90;;;;;;4925468;29;20049;-82
2024/01/02 07:29:18;;;;;;;1.33;0.80;;;7.30;99.90;;;;;;4927234;29;20039;-84
2024/01/02 07:31:44;;;;;;;2.08;0.77;;;7.20;99.90;;;;;;4921847;29;20079;-84
2024/01/02 07:34:12;;;;;;;1.52;0.80;;;7.30;99.90;;;;;;4923745;29;20233;-84
2024/01/02 07:36:39;;;;;;;2.28;1.08;;;7.60;99.90;;;;;;4923505;29;20072;-84
2024/01/02 07:39:05;;;;;;;2.55;1.50;;;6.70;99.90;;;;;;4905037;29;20097;-83
2024/01/02 07:41:31;;;;;;;2.20;1.40;;;6.70;99.90;;;;;;4921956;29;20086;-83
2024/01/02 07:43:57;;;;;;;2.17;1.35;;;7.60;99.90;;;;;;4922505;29;20488;-82
2024/01/02 07:46:23;;;;;;;2.35;1.50;;;6.80;99.90;;;;;;4919997;29;20047;-83
2024/01/02 07:48:49;;;;;;;2.70;1.90;;;7.60;99.90;;;;;;4924706;29;20048;-83
2024/01/02 07:51:15;;;;;;;2.65;1.70;;;6.80;99.90;;;;;;4902140;29;20052;-83
2024/01/02 07:53:41;;;;;;;2.28;1.58;;;7.50;99.90;;;;;;4901343;29;20052;-83
2024/01/02 07:56:06;;;;;;;2.83;1.98;;;6.80;99.90;;;;;;4919981;29;20042;-84
2024/01/02 07:58:32;;;;;;;2.40;1.63;;;6.80;99.90;;;;;;4900196;29;20496;-84
2024/01/02 08:00:58;;;;;;;2.92;1.92;;;7.70;99.90;;;;;;4900670;29;20052;-83
2024/01/02 08:03:24;;;;;;;3.45;2.00;;;6.60;99.90;;;;;;4884643;29;20042;-83
2024/01/02 08:05:49;;;;;;;3.22;1.95;;;7.80;99.90;;;;;;4898711;29;20087;-84
2024/01/02 08:08:16;;;;;;;3.65;1.90;;;7.80;99.90;;;;;;4916645;29;20048;-84
2024/01/02 08:10:42;;;;;;;3.35;2.03;;;7.80;99.90;;;;;;4902138;29;20056;-84
2024/01/02 08:13:08;;;;;;;5.45;2.30;;;7.90;99.90;;;;;;4906782;29;20151;-84
2024/01/02 08:15:34;;;;;;;8.02;2.92;;;7.90;99.90;;;;;;4918437;29;20126;-84
2024/01/02 08:17:59;;;;;;;7.03;3.72;;;8.00;99.90;;;;;;4925360;29;20119;-83
2024/01/02 08:20:25;;;;;;;6.43;3.60;;;8.30;99.90;;;;;;4913390;29;20472;-84
2024/01/02 08:22:51;;;;;;;7.32;3.97;;;8.30;99.90;;;;;;4898764;29;20044;-84
2024/01/02 08:25:16;;;;;;;11.98;4.18;;;7.70;99.90;;;;;;4912964;29;20097;-85
2024/01/02 08:27:42;;;;;;;16.15;4.07;;;7.80;99.90;;;;;;4906705;29;20063;-84
2024/01/02 08:30:08;;;;;;;12.05;4.10;;;8.80;99.90;;;;;;4912923;29;20047;-83
2024/01/02 08:32:34;;;;;;;17.25;4.45;;;8.00;99.90;;;;;;4924040;29;20039;-86
2024/01/02 08:35:00;;;;;;;13.32;3.72;;;8.60;99.90;;;;;;4928953;29;20063;-86
2024/01/02 08:37:26;;;;;;;19.67;3.65;;;8.30;99.90;;;;;;4893033;29;20816;-87
2024/01/02 08:39:53;;;;;;;17.00;3.80;;;9.30;99.90;;;;;;4923401;29;20047;-88
2024/01/02 08:42:19;;;;;;;22.75;3.70;;;8.00;99.90;;;;;;4892540;29;20063;-86
2024/01/02 08:44:45;;;;;;;13.63;2.95;;;8.80;99.90;;;;;;4925137;29;20055;-85
2024/01/02 08:47:11;;;;;;;13.77;2.30;;;8.70;99.90;;;;;;4905505;29;20079;-86
2024/01/02 08:49:37;;;;;;;21.55;2.80;;;8.70;99.90;;;;;;4901491;29;20040;-86
2024/01/02 08:52:03;;;;;;;19.80;2.50;;;8.80;99.90;;;;;;4887944;29;20047;-87
2024/01/02 08:54:29;;;;;;;20.60;2.65;;;9.00;99.90;;;;;;4889364;29;20826;-88
2024/01/02 08:56:54;;;;;;;19.00;2.15;;;9.00;99.90;;;;;;4889861;29;20087;-85
2024/01/02 08:59:27;;;;;;;23.02;2.58;;;10.00;99.90;;;;;;4905953;29;20098;-88
2024/01/02 09:05:34;;;;;;;17.25;2.22;;;10.00;99.90;;;;;;5095265;27;20412;-89
2024/01/02 09:08:00;;;;;;;24.02;2.80;;;10.20;99.90;;;;;;5077370;28;20075;-85
2024/01/02 09:10:26;;;;;;;20.70;2.60;;;9.50;99.90;;;;;;5076934;28;20109;-86
2024/01/02 09:12:51;;;;;;;12.90;2.15;;;10.30;99.90;;;;;;5090905;28;20118;-85
2024/01/02 09:15:17;;;;;;;22.75;3.08;;;9.20;99.90;;;;;;5093742;28;20044;-88
2024/01/02 09:17:43;;;;;;;18.92;2.25;;;9.20;99.90;;;;;;5090515;28;20050;-86
2024/01/02 09:20:11;;;;;;;22.25;2.58;;;9.80;99.90;;;;;;5096241;28;20040;-86
2024/01/02 09:22:37;;;;;;;26.38;2.65;;;9.40;99.90;;;;;;5087034;28;20048;-86
2024/01/02 09:25:03;;;;;;;22.58;2.35;;;10.10;99.90;;;;;;5111427;27;20510;-88
2024/01/02 09:27:30;;;;;;;22.60;2.78;;;9.60;99.90;;;;;;5098683;28;20052;-87
2024/01/02 09:29:59;;;;;;;26.90;2.33;;;9.50;99.90;;;;;;5087094;28;20475;-88
2024/01/02 09:32:26;;;;;;;19.58;3.00;;;9.50;99.90;;;;;;5088230;28;20040;-86
2024/01/02 09:34:52;;;;;;;17.85;2.72;;;9.80;99.90;;;;;;5087270;28;20048;-85
2024/01/02 09:37:18;;;;;;;21.25;2.63;;;10.40;99.90;;;;;;5087094;28;20079;-86
2024/01/02 09:39:46;;;;;;;27.75;3.53;;;9.10;99.90;;;;;;5090668;28;20463;-88
2024/01/02 09:42:29;;;;;;;16.20;2.38;;;9.70;99.90;;;;;;5091835;28;20451;-85
2024/01/02 09:45:16;;;;;;;14.60;2.30;;;10.40;99.90;;;;;;5105963;28;20047;-86
2024/01/02 09:47:49;;;;;;;18.63;2.83;;;9.90;99.90;;;;;;5085287;28;20051;-86
2024/01/02 09:50:28;;;;;;;24.77;2.95;;;9.80;99.90;;;;;;5094364;28;20114;-86
2024/01/02 09:53:16;;;;;;;22.45;2.45;;;10.90;99.90;;;;;;5096308;28;20596;-86
2024/01/02 09:56:18;;;;;;;15.23;2.92;;;9.90;99.90;;;;;;5095812;28;20063;-86
2024/01/02 09:58:58;;;;;;;19.92;2.78;;;10.00;99.90;;;;;;5079653;28;20087;-89
2024/01/02 10:01:44;;;;;;;22.88;2.83;;;10.00;99.90;;;;;;5074370;28;20515;-87
2024/01/02 10:04:54;;;;;;;19.48;2.88;;;9.90;99.90;;;;;;5077642;28;20066;-86
2024/01/02 10:07:23;;;;;;;20.60;3.10;;;10.00;99.90;;;;;;5085494;28;20721;-82
2024/01/02 10:10:12;;;;;;;17.70;2.40;;;10.10;99.90;;;;;;5099372;28;20050;-84
2024/01/02 10:12:55;;;;;;;26.55;2.70;;;10.00;99.90;;;;;;5075171;28;20047;-85
2024/01/02 10:15:29;;;;;;;27.73;3.80;;;10.10;99.90;;;;;;5082332;28;20487;-84
2024/01/02 10:18:06;;;;;;;18.40;2.97;;;10.10;99.90;;;;;;5078529;28;20086;-84
2024/01/02 10:20:48;;;;;;;21.02;2.42;;;10.00;99.90;;;;;;5066095;28;20044;-90
2024/01/02 10:23:39;;;;;;;22.58;3.17;;;10.60;99.90;;;;;;5077988;28;20049;-85
2024/01/02 10:26:07;;;;;;;17.20;2.47;;;10.10;99.90;;;;;;5072155;28;20059;-90
2024/01/02 10:28:35;;;;;;;21.75;2.75;;;10.40;99.90;;;;;;5082150;28;20045;-86
2024/01/02 10:31:28;;;;;;;24.90;2.65;;;10.60;99.90;;;;;;5083381;28;20109;-84
2024/01/02 10:34:23;;;;;;;16.90;2.85;;;10.20;99.90;;;;;;5055380;28;20044;-84
2024/01/02 10:36:56;;;;;;;30.35;3.10;;;10.20;99.90;;;;;;5082774;28;20048;-85
2024/01/02 10:39:44;;;;;;;24.92;3.55;;;11.10;99.90;;;;;;5066189;28;20050;-86
2024/01/02 10:42:34;;;;;;;22.77;2.85;;;11.00;99.90;;;;;;5071137;28;20056;-84
2024/01/02 10:45:19;;;;;;;19.35;2.97;;;10.20;99.90;;;;;;5054999;28;20048;-87
2024/01/02 10:47:45;;;;;;;;;;;10.20;99.90;;;;;;5064365;28;20052;-84
2024/01/02 10:50:15;;;;;;;19.67;3.33;;;10.30;99.90;;;;;;5083478;28;19928;-84
2024/01/02 10:53:15;;;;;;;23.85;3.97;;;10.30;99.90;;;;;;5083060;28;20520;-85
2024/01/02 10:55:58;;;;;;;17.05;2.80;;;10.30;99.90;;;;;;5077070;28;20065;-84
2024/01/02 10:58:32;;;;;;;27.67;3.70;;;10.80;99.90;;;;;;5074146;28;20095;-87
2024/01/02 11:01:11;;;;;;;16.17;2.60;;;10.40;99.90;;;;;;5081983;28;20051;-87
2024/01/02 11:03:50;;;;;;;17.45;3.17;;;11.10;99.90;;;;;;5081690;28;20143;-88
2024/01/02 11:07:04;;;;;;;30.85;4.53;;;10.40;99.90;;;;;;5061939;28;20044;-85
2024/01/02 11:09:42;;;;;;;30.48;7.05;;;11.00;99.90;;;;;;4972489;28;20725;-85
2024/01/02 11:12:10;;;;;;;36.10;10.50;;;11.30;99.90;;;;;;4954706;28;20093;-87
2024/01/02 11:14:40;;;;;;;42.78;14.80;;;10.40;99.90;;;;;;4972972;28;20049;-85
2024/01/02 11:17:06;;;;;;;50.65;14.43;;;10.40;99.90;;;;;;4973821;28;20807;-83
2024/01/02 11:19:40;;;;;;;43.55;15.15;;;10.50;99.90;;;;;;4989260;28;20058;-87
2024/01/02 11:22:15;;;;;;;50.70;17.25;;;10.80;99.90;;;;;;4995983;28;20805;-86
2024/01/02 11:24:49;;;;;;;55.53;17.90;;;11.00;99.90;;;;;;4972745;28;20064;-84
2024/01/02 11:27:19;;;;;;;46.90;14.80;;;10.60;99.90;;;;;;4968506;28;20138;-85
2024/01/02 11:29:48;;;;;;;42.70;15.57;;;11.20;99.90;;;;;;4956163;28;20301;-84
2024/01/02 11:32:17;;;;;;;52.83;14.75;;;11.30;99.90;;;;;;4988951;28;20067;-87
2024/01/02 11:35:00;;;;;;;47.78;14.23;;;10.60;99.90;;;;;;4989248;28;20042;-85
2024/01/02 11:37:37;;;;;;;47.55;13.27;;;11.10;99.90;;;;;;4988007;28;20113;-84
2024/01/02 11:40:23;;;;;;;42.22;11.95;;;10.50;99.90;;;;;;4972192;28;20101;-85
2024/01/02 11:42:52;;;;;;;56.83;12.13;;;10.50;99.90;;;;;;5002766;28;20098;-86
2024/01/02 11:45:21;;;;;;;43.53;11.57;;;10.60;99.90;;;;;;5058119;28;20495;-88
2024/01/02 11:48:15;;;;;;;47.38;13.10;;;10.60;99.90;;;;;;5059355;28;20049;-88
2024/01/02 11:50:57;;;;;;;42.78;11.45;;;10.60;99.90;;;;;;5072771;28;20057;-85
2024/01/02 11:53:44;;;;;;;43.53;10.07;;;10.50;99.90;;;;;;5074721;28;20106;-86
2024/01/02 11:56:12;;;;;;;31.38;8.85;;;10.50;99.90;;;;;;5073632;28;20044;-85
2024/01/02 11:58:56;;;;;;;45.60;9.15;;;10.60;99.90;;;;;;5076333;28;20048;-85
2024/01/02 12:01:42;;;;;;;37.45;8.70;;;10.50;99.90;;;;;;5073557;28;20052;-90
2024/01/02 12:04:25;;;;;;;32.08;7.45;;;10.50;99.90;;;;;;5078447;28;20163;-86
2024/01/02 12:06:55;;;;;;;41.92;9.23;;;10.60;99.90;;;;;;5071266;28;20044;-85
2024/01/02 12:09:26;;;;;;;41.70;8.73;;;11.10;99.90;;;;;;5069890;28;20086;-86
2024/01/02 12:12:10;;;;;;;33.28;6.78;;;10.50;99.90;;;;;;5080047;28;20043;-86
2024/01/02 12:14:42;;;;;;;30.02;6.20;;;10.50;99.90;;;;;;5072403;28;20120;-86
2024/01/02 12:17:08;;;;;;;32.65;5.35;;;10.60;99.90;;;;;;5077232;28;20505;-86
2024/01/02 12:19:38;;;;;;;31.88;4.93;;;10.50;99.90;;;;;;5081658;28;20499;-85
2024/01/02 12:22:06;;;;;;;27.80;5.13;;;11.00;99.90;;;;;;5080476;28;20118;-86
2024/01/02 12:24:33;;;;;;;25.25;4.50;;;10.50;99.90;;;;;;5061834;28;20097;-91
2024/01/02 12:27:00;;;;;;;30.85;5.35;;;10.50;99.90;;;;;;5069780;28;20566;-86
2024/01/02 12:29:55;;;;;;;38.10;4.93;;;10.90;99.90;;;;;;5077650;28;20044;-87
2024/01/02 12:32:51;;;;;;;35.25;5.65;;;11.20;99.90;;;;;;5077833;28;20048;-88
2024/01/02 12:35:31;;;;;;;31.05;5.45;;;10.50;99.90;;;;;;5087220;28;20546;-85
2024/01/02 12:38:18;;;;;;;32.58;4.25;;;10.50;99.90;;;;;;5106081;27;20089;-86
2024/01/02 12:40:46;;;;;;;31.65;5.03;;;10.90;99.90;;;;;;5078386;28;20098;-88
2024/01/02 12:43:17;;;;;;;60.28;27.65;;;11.20;99.90;;;;;;5085978;28;20044;-88
2024/01/02 12:45:46;;;;;;;41.03;12.25;;;10.50;99.90;;;;;;5083704;28;20395;-90
2024/01/02 12:48:18;;;;;;;33.55;8.80;;;11.00;99.90;;;;;;5082139;28;20048;-87
2024/01/02 12:50:50;;;;;;;34.42;5.90;;;11.00;99.90;;;;;;5080756;28;20391;-87
2024/01/02 12:53:17;;;;;;;30.33;4.30;;;10.70;99.90;;;;;;5086358;28;20189;-85
2024/01/02 12:55:57;;;;;;;34.03;8.70;;;10.50;99.90;;;;;;5080615;28;20048;-86
2024/01/02 12:58:29;;;;;;;39.50;11.82;;;10.50;99.90;;;;;;5079932;28;20040;-85
2024/01/02 13:00:55;;;;;;;40.83;10.73;;;11.20;99.90;;;;;;5081099;28;20804;-84